Aviation Digital Data Service (ADDS)

Output produced by METARs form (2248 UTC 20 October 2014)
found at http://www.aviationweather.gov/adds/metars/
 
KROW 202234Z 14008KT 10SM VCTS FEW100 22/13 A3006 RMK AO2 LTG DSNT ALQDS T02220133
KROW 202151Z 18006KT 10SM CLR 23/14 A3005 RMK AO2 LTG DSNT N-SE SLP130 T02280139
KROW 202051Z 20008KT 10SM FEW034 22/13 A3006 RMK AO2 LTG DSNT NE-SE SLP132 T02220133 58025
KROW 201958Z 00000KT 10SM BKN030 OVC035 22/13 A3009 RMK AO2 T02220133
KROW 201951Z VRB03KT 10SM BKN029 BKN036 OVC090 21/13 A3009 RMK AO2 SLP143 T02110133
KROW 201907Z 00000KT 10SM BKN025 21/13 A3010 RMK AO2 T02060133
KROW 201851Z 00000KT 10SM FEW023 21/13 A3012 RMK AO2 SLP152 T02060133
KROW 201836Z VRB03KT 10SM SCT023 20/13 A3012 RMK AO2 T02000133
KROW 201751Z 00000KT 10SM OVC022 19/14 A3014 RMK AO2 SLP163 T01890139 10194 20117 58001
KROW 201651Z 34004KT 10SM OVC022 17/13 A3015 RMK AO2 SLP167 T01720128
KROW 201551Z 01004KT 10SM OVC019 16/12 A3015 RMK AO2 SLP169 T01560122
KROW 201451Z 36006KT 10SM OVC019 14/11 A3014 RMK AO2 SLP169 T01390111 51016
KROW 201416Z 35007KT 10SM SCT010 OVC016 13/11 A3014 RMK AO2 T01330106
KROW 201351Z 36008KT 10SM BKN010 OVC016 13/11 A3013 RMK AO2 SLP164 T01280106
KROW 201305Z 32005KT 10SM BKN015 12/11 A3011 RMK AO2 T01220106
KROW 201251Z 33003KT 10SM FEW015 12/10 A3011 RMK AO2 SLP159 T01170100
KROW 201151Z AUTO 01004KT 10SM CLR 12/10 A3009 RMK AO2 SLP146 T01220100 10139 20117 56001
KROW 201051Z AUTO 34004KT 10SM BKN060 13/11 A3010 RMK AO2 SLP146 T01280106
KROW 200951Z AUTO 02003KT 10SM FEW060 13/10 A3009 RMK AO2 SLP145 T01280100
KROW 200851Z AUTO 34004KT 10SM CLR 13/11 A3010 RMK AO2 SLP147 T01330106 53003
KROW 200751Z AUTO 00000KT 10SM SCT050 13/11 A3009 RMK AO2 SLP145 T01330106
KROW 200651Z AUTO 35006KT 10SM SCT031 14/11 A3009 RMK AO2 SLP145 T01390106 402170100
KROW 200551Z AUTO 02003KT 10SM FEW031 14/11 A3009 RMK AO2 SLP149 T01390111 10211 20139 50003
KROW 200451Z AUTO 05003KT 10SM SCT044 14/11 A3010 RMK AO2 SLP153 T01440106
KROW 200351Z AUTO 02003KT 10SM CLR 15/11 A3009 RMK AO2 SLP152 T01500111
KROW 200251Z AUTO 27003KT 10SM CLR 16/11 A3008 RMK AO2 SLP147 T01560111 53006
KROW 200151Z 32003KT 10SM CLR 17/11 A3006 RMK AO2 SLP142 T01670111
KROW 200051Z 00000KT 10SM CLR 17/12 A3006 RMK AO2 SLP143 T01720117
KROW 192351Z 00000KT 10SM CLR 21/12 A3005 RMK AO2 SLP135 T02110122 10217 20161 55003
KROW 192251Z 20006KT 10SM FEW110 22/13 A3005 RMK AO2 SLP131 T02170128
KROW 202115Z 2021/2118 20005KT P6SM SCT035 SCT050 
     FM202200 15007KT P6SM VCTS BKN050CB 
     FM210100 19006KT P6SM -RA OVC040 
     FM211000 VRB04KT P6SM OVC030 
     FM211500 23005KT P6SM -SHRA OVC025